sensor_id;sensor_type;location;lat;lon;timestamp;P1;durP1;ratioP1;P2;durP2;ratioP2
23617;SDS011;18207;32.078;34.818;2023-04-21T00:01:59;0.30;;;0.30;;
23617;SDS011;18207;32.078;34.818;2023-04-21T00:04:30;0.75;;;0.43;;
23617;SDS011;18207;32.078;34.818;2023-04-21T00:07:02;1.23;;;0.50;;
23617;SDS011;18207;32.078;34.818;2023-04-21T00:09:32;0.88;;;0.55;;
23617;SDS011;18207;32.078;34.818;2023-04-21T00:12:02;0.85;;;0.40;;
23617;SDS011;18207;32.078;34.818;2023-04-21T00:14:33;0.85;;;0.35;;
23617;SDS011;18207;32.078;34.818;2023-04-21T00:17:05;0.10;;;0.10;;
23617;SDS011;18207;32.078;34.818;2023-04-21T00:19:35;0.17;;;0.17;;
23617;SDS011;18207;32.078;34.818;2023-04-21T00:22:07;0.43;;;0.30;;
23617;SDS011;18207;32.078;34.818;2023-04-21T00:24:40;0.30;;;0.22;;
23617;SDS011;18207;32.078;34.818;2023-04-21T00:27:11;0.60;;;0.40;;
23617;SDS011;18207;32.078;34.818;2023-04-21T00:29:41;0.57;;;0.35;;
23617;SDS011;18207;32.078;34.818;2023-04-21T00:32:11;0.30;;;0.22;;
23617;SDS011;18207;32.078;34.818;2023-04-21T00:34:40;0.40;;;0.30;;
23617;SDS011;18207;32.078;34.818;2023-04-21T00:37:12;0.50;;;0.28;;
23617;SDS011;18207;32.078;34.818;2023-04-21T00:39:42;0.22;;;0.20;;
23617;SDS011;18207;32.078;34.818;2023-04-21T00:42:14;0.40;;;0.30;;
23617;SDS011;18207;32.078;34.818;2023-04-21T00:44:43;0.90;;;0.30;;
23617;SDS011;18207;32.078;34.818;2023-04-21T00:47:13;0.22;;;0.20;;
23617;SDS011;18207;32.078;34.818;2023-04-21T00:49:43;0.40;;;0.30;;
23617;SDS011;18207;32.078;34.818;2023-04-21T00:52:16;0.85;;;0.50;;
23617;SDS011;18207;32.078;34.818;2023-04-21T00:54:47;0.57;;;0.30;;
23617;SDS011;18207;32.078;34.818;2023-04-21T00:57:17;0.45;;;0.40;;
23617;SDS011;18207;32.078;34.818;2023-04-21T00:59:49;0.50;;;0.30;;
23617;SDS011;18207;32.078;34.818;2023-04-21T01:02:19;0.32;;;0.32;;
23617;SDS011;18207;32.078;34.818;2023-04-21T01:04:50;0.57;;;0.40;;
23617;SDS011;18207;32.078;34.818;2023-04-21T01:07:23;0.85;;;0.57;;
23617;SDS011;18207;32.078;34.818;2023-04-21T01:09:54;0.52;;;0.50;;
23617;SDS011;18207;32.078;34.818;2023-04-21T01:12:25;0.70;;;0.60;;
23617;SDS011;18207;32.078;34.818;2023-04-21T01:14:55;0.90;;;0.70;;
23617;SDS011;18207;32.078;34.818;2023-04-21T01:17:26;0.73;;;0.50;;
23617;SDS011;18207;32.078;34.818;2023-04-21T01:20:00;1.30;;;0.82;;
23617;SDS011;18207;32.078;34.818;2023-04-21T01:22:38;0.77;;;0.57;;
23617;SDS011;18207;32.078;34.818;2023-04-21T01:25:10;0.68;;;0.68;;
23617;SDS011;18207;32.078;34.818;2023-04-21T01:27:41;0.60;;;0.47;;
23617;SDS011;18207;32.078;34.818;2023-04-21T01:30:10;0.77;;;0.77;;
23617;SDS011;18207;32.078;34.818;2023-04-21T01:32:40;1.20;;;0.90;;
23617;SDS011;18207;32.078;34.818;2023-04-21T01:35:10;0.82;;;0.77;;
23617;SDS011;18207;32.078;34.818;2023-04-21T01:37:42;0.68;;;0.68;;
23617;SDS011;18207;32.078;34.818;2023-04-21T01:40:12;1.48;;;1.00;;
23617;SDS011;18207;32.078;34.818;2023-04-21T01:42:42;0.80;;;0.77;;
23617;SDS011;18207;32.078;34.818;2023-04-21T01:45:13;0.70;;;0.57;;
23617;SDS011;18207;32.078;34.818;2023-04-21T01:47:43;0.98;;;0.82;;
23617;SDS011;18207;32.078;34.818;2023-04-21T01:50:13;1.10;;;0.80;;
23617;SDS011;18207;32.078;34.818;2023-04-21T01:52:45;0.90;;;0.77;;
23617;SDS011;18207;32.078;34.818;2023-04-21T01:55:15;1.10;;;0.65;;
23617;SDS011;18207;32.078;34.818;2023-04-21T01:57:46;0.95;;;0.80;;
23617;SDS011;18207;32.078;34.818;2023-04-21T02:00:16;0.68;;;0.65;;
23617;SDS011;18207;32.078;34.818;2023-04-21T02:02:47;1.13;;;0.80;;
23617;SDS011;18207;32.078;34.818;2023-04-21T02:05:17;1.70;;;0.88;;
23617;SDS011;18207;32.078;34.818;2023-04-21T02:07:50;0.88;;;0.88;;
23617;SDS011;18207;32.078;34.818;2023-04-21T02:10:20;1.25;;;0.93;;
23617;SDS011;18207;32.078;34.818;2023-04-21T02:12:50;1.25;;;1.15;;
23617;SDS011;18207;32.078;34.818;2023-04-21T02:15:20;0.82;;;0.75;;
23617;SDS011;18207;32.078;34.818;2023-04-21T02:17:50;0.60;;;0.60;;
23617;SDS011;18207;32.078;34.818;2023-04-21T02:20:20;1.00;;;0.90;;
23617;SDS011;18207;32.078;34.818;2023-04-21T02:22:52;2.28;;;1.10;;
23617;SDS011;18207;32.078;34.818;2023-04-21T02:25:22;1.70;;;1.27;;
23617;SDS011;18207;32.078;34.818;2023-04-21T02:27:58;1.10;;;1.00;;
23617;SDS011;18207;32.078;34.818;2023-04-21T02:30:28;0.90;;;0.88;;
23617;SDS011;18207;32.078;34.818;2023-04-21T02:32:58;0.98;;;0.70;;
23617;SDS011;18207;32.078;34.818;2023-04-21T02:35:29;0.70;;;0.70;;
23617;SDS011;18207;32.078;34.818;2023-04-21T02:38:02;1.48;;;0.90;;
23617;SDS011;18207;32.078;34.818;2023-04-21T02:40:34;1.15;;;0.90;;
23617;SDS011;18207;32.078;34.818;2023-04-21T02:43:04;1.20;;;0.65;;
23617;SDS011;18207;32.078;34.818;2023-04-21T02:45:35;0.70;;;0.70;;
23617;SDS011;18207;32.078;34.818;2023-04-21T02:48:06;1.08;;;0.50;;
23617;SDS011;18207;32.078;34.818;2023-04-21T02:50:37;1.02;;;0.82;;
23617;SDS011;18207;32.078;34.818;2023-04-21T02:53:09;1.02;;;0.80;;
23617;SDS011;18207;32.078;34.818;2023-04-21T02:55:39;1.30;;;1.00;;
23617;SDS011;18207;32.078;34.818;2023-04-21T02:58:09;0.88;;;0.68;;
23617;SDS011;18207;32.078;34.818;2023-04-21T03:00:40;1.48;;;1.00;;
23617;SDS011;18207;32.078;34.818;2023-04-21T03:03:10;0.80;;;0.80;;
23617;SDS011;18207;32.078;34.818;2023-04-21T03:05:40;0.60;;;0.60;;
23617;SDS011;18207;32.078;34.818;2023-04-21T03:08:12;1.83;;;0.93;;
23617;SDS011;18207;32.078;34.818;2023-04-21T03:10:42;1.05;;;0.95;;
23617;SDS011;18207;32.078;34.818;2023-04-21T03:13:12;1.10;;;0.95;;
23617;SDS011;18207;32.078;34.818;2023-04-21T03:15:43;0.65;;;0.55;;
23617;SDS011;18207;32.078;34.818;2023-04-21T03:18:13;1.27;;;0.90;;
23617;SDS011;18207;32.078;34.818;2023-04-21T03:20:43;0.85;;;0.70;;
23617;SDS011;18207;32.078;34.818;2023-04-21T03:23:15;1.02;;;0.90;;
23617;SDS011;18207;32.078;34.818;2023-04-21T03:25:45;2.30;;;0.70;;
23617;SDS011;18207;32.078;34.818;2023-04-21T03:28:16;0.75;;;0.75;;
23617;SDS011;18207;32.078;34.818;2023-04-21T03:30:46;0.70;;;0.70;;
23617;SDS011;18207;32.078;34.818;2023-04-21T03:33:16;0.77;;;0.73;;
23617;SDS011;18207;32.078;34.818;2023-04-21T03:35:46;1.58;;;0.65;;
23617;SDS011;18207;32.078;34.818;2023-04-21T03:38:18;0.60;;;0.60;;
23617;SDS011;18207;32.078;34.818;2023-04-21T03:40:48;0.60;;;0.52;;
23617;SDS011;18207;32.078;34.818;2023-04-21T03:43:18;1.48;;;0.77;;
23617;SDS011;18207;32.078;34.818;2023-04-21T03:45:49;0.50;;;0.50;;
23617;SDS011;18207;32.078;34.818;2023-04-21T03:48:19;0.57;;;0.50;;
23617;SDS011;18207;32.078;34.818;2023-04-21T03:50:49;0.75;;;0.52;;
23617;SDS011;18207;32.078;34.818;2023-04-21T03:53:21;1.30;;;0.70;;
23617;SDS011;18207;32.078;34.818;2023-04-21T03:55:51;1.10;;;0.90;;
23617;SDS011;18207;32.078;34.818;2023-04-21T03:58:21;1.25;;;0.88;;
23617;SDS011;18207;32.078;34.818;2023-04-21T04:00:52;1.20;;;0.75;;
23617;SDS011;18207;32.078;34.818;2023-04-21T04:03:22;1.58;;;0.90;;
23617;SDS011;18207;32.078;34.818;2023-04-21T04:05:52;1.35;;;0.70;;
23617;SDS011;18207;32.078;34.818;2023-04-21T04:08:24;1.90;;;0.85;;
23617;SDS011;18207;32.078;34.818;2023-04-21T04:10:54;1.40;;;0.80;;
23617;SDS011;18207;32.078;34.818;2023-04-21T04:13:24;0.63;;;0.50;;
23617;SDS011;18207;32.078;34.818;2023-04-21T04:15:55;0.70;;;0.70;;
23617;SDS011;18207;32.078;34.818;2023-04-21T04:18:25;0.40;;;0.40;;
23617;SDS011;18207;32.078;34.818;2023-04-21T04:20:56;1.15;;;0.73;;
23617;SDS011;18207;32.078;34.818;2023-04-21T04:23:28;0.52;;;0.52;;
23617;SDS011;18207;32.078;34.818;2023-04-21T04:25:58;0.70;;;0.47;;
23617;SDS011;18207;32.078;34.818;2023-04-21T04:28:32;1.08;;;0.70;;
23617;SDS011;18207;32.078;34.818;2023-04-21T04:31:02;0.75;;;0.75;;
23617;SDS011;18207;32.078;34.818;2023-04-21T04:33:32;0.95;;;0.65;;
23617;SDS011;18207;32.078;34.818;2023-04-21T04:36:03;1.83;;;0.45;;
23617;SDS011;18207;32.078;34.818;2023-04-21T04:38:36;1.35;;;0.77;;
23617;SDS011;18207;32.078;34.818;2023-04-21T04:41:07;0.65;;;0.52;;
23617;SDS011;18207;32.078;34.818;2023-04-21T04:43:38;0.60;;;0.60;;
23617;SDS011;18207;32.078;34.818;2023-04-21T04:46:08;0.75;;;0.60;;
23617;SDS011;18207;32.078;34.818;2023-04-21T04:48:39;0.77;;;0.65;;
23617;SDS011;18207;32.078;34.818;2023-04-21T04:51:08;0.95;;;0.50;;
23617;SDS011;18207;32.078;34.818;2023-04-21T04:53:41;1.40;;;0.55;;
23617;SDS011;18207;32.078;34.818;2023-04-21T04:56:11;0.80;;;0.75;;
23617;SDS011;18207;32.078;34.818;2023-04-21T04:58:41;0.73;;;0.65;;
23617;SDS011;18207;32.078;34.818;2023-04-21T05:01:12;1.05;;;0.88;;
23617;SDS011;18207;32.078;34.818;2023-04-21T05:03:43;1.55;;;0.90;;
23617;SDS011;18207;32.078;34.818;2023-04-21T05:06:14;0.75;;;0.70;;
23617;SDS011;18207;32.078;34.818;2023-04-21T05:08:45;1.00;;;0.60;;
23617;SDS011;18207;32.078;34.818;2023-04-21T05:11:16;0.70;;;0.70;;
23617;SDS011;18207;32.078;34.818;2023-04-21T05:13:46;1.17;;;0.80;;
23617;SDS011;18207;32.078;34.818;2023-04-21T05:16:16;1.50;;;0.70;;
23617;SDS011;18207;32.078;34.818;2023-04-21T05:18:46;0.60;;;0.60;;
23617;SDS011;18207;32.078;34.818;2023-04-21T05:21:21;0.60;;;0.60;;
23617;SDS011;18207;32.078;34.818;2023-04-21T05:23:55;1.98;;;0.65;;
23617;SDS011;18207;32.078;34.818;2023-04-21T05:26:27;1.00;;;0.70;;
23617;SDS011;18207;32.078;34.818;2023-04-21T05:28:58;0.40;;;0.40;;
23617;SDS011;18207;32.078;34.818;2023-04-21T05:31:28;0.57;;;0.57;;
23617;SDS011;18207;32.078;34.818;2023-04-21T05:33:59;1.55;;;0.75;;
23617;SDS011;18207;32.078;34.818;2023-04-21T05:36:29;0.90;;;0.70;;
23617;SDS011;18207;32.078;34.818;2023-04-21T05:39:02;1.48;;;0.70;;
23617;SDS011;18207;32.078;34.818;2023-04-21T05:41:32;0.65;;;0.47;;
23617;SDS011;18207;32.078;34.818;2023-04-21T05:44:02;1.30;;;0.70;;
23617;SDS011;18207;32.078;34.818;2023-04-21T05:46:38;0.47;;;0.47;;
23617;SDS011;18207;32.078;34.818;2023-04-21T05:49:08;0.80;;;0.70;;
23617;SDS011;18207;32.078;34.818;2023-04-21T05:51:39;1.10;;;0.75;;
23617;SDS011;18207;32.078;34.818;2023-04-21T05:54:11;0.43;;;0.40;;
23617;SDS011;18207;32.078;34.818;2023-04-21T05:56:42;0.55;;;0.43;;
23617;SDS011;18207;32.078;34.818;2023-04-21T05:59:13;0.75;;;0.55;;
23617;SDS011;18207;32.078;34.818;2023-04-21T06:01:44;0.50;;;0.20;;
23617;SDS011;18207;32.078;34.818;2023-04-21T06:04:14;1.00;;;0.57;;
23617;SDS011;18207;32.078;34.818;2023-04-21T06:06:45;0.50;;;0.40;;
23617;SDS011;18207;32.078;34.818;2023-04-21T06:09:17;0.68;;;0.40;;
23617;SDS011;18207;32.078;34.818;2023-04-21T06:11:47;0.95;;;0.30;;
23617;SDS011;18207;32.078;34.818;2023-04-21T06:14:18;0.40;;;0.40;;
23617;SDS011;18207;32.078;34.818;2023-04-21T06:16:47;1.10;;;0.40;;
23617;SDS011;18207;32.078;34.818;2023-04-21T06:19:18;0.60;;;0.47;;
23617;SDS011;18207;32.078;34.818;2023-04-21T06:21:47;0.38;;;0.38;;
23617;SDS011;18207;32.078;34.818;2023-04-21T06:24:19;0.90;;;0.47;;
23617;SDS011;18207;32.078;34.818;2023-04-21T06:26:52;0.50;;;0.50;;
23617;SDS011;18207;32.078;34.818;2023-04-21T06:29:22;0.40;;;0.20;;
23617;SDS011;18207;32.078;34.818;2023-04-21T06:31:52;0.47;;;0.40;;
23617;SDS011;18207;32.078;34.818;2023-04-21T06:34:22;0.95;;;0.60;;
23617;SDS011;18207;32.078;34.818;2023-04-21T06:36:52;0.55;;;0.45;;
23617;SDS011;18207;32.078;34.818;2023-04-21T06:39:24;0.60;;;0.60;;
23617;SDS011;18207;32.078;34.818;2023-04-21T06:41:54;0.50;;;0.45;;
23617;SDS011;18207;32.078;34.818;2023-04-21T06:44:25;0.50;;;0.50;;
23617;SDS011;18207;32.078;34.818;2023-04-21T06:46:55;0.70;;;0.43;;
23617;SDS011;18207;32.078;34.818;2023-04-21T06:49:25;0.50;;;0.50;;
23617;SDS011;18207;32.078;34.818;2023-04-21T06:51:55;0.20;;;0.20;;
23617;SDS011;18207;32.078;34.818;2023-04-21T06:54:27;0.57;;;0.47;;
23617;SDS011;18207;32.078;34.818;2023-04-21T06:56:58;0.68;;;0.50;;
23617;SDS011;18207;32.078;34.818;2023-04-21T06:59:28;0.50;;;0.32;;
23617;SDS011;18207;32.078;34.818;2023-04-21T07:01:59;0.38;;;0.35;;
23617;SDS011;18207;32.078;34.818;2023-04-21T07:04:29;1.08;;;0.50;;
23617;SDS011;18207;32.078;34.818;2023-04-21T07:06:59;0.50;;;0.50;;
23617;SDS011;18207;32.078;34.818;2023-04-21T07:09:31;0.77;;;0.40;;
23617;SDS011;18207;32.078;34.818;2023-04-21T07:12:01;0.38;;;0.38;;
23617;SDS011;18207;32.078;34.818;2023-04-21T07:14:32;1.02;;;0.60;;
23617;SDS011;18207;32.078;34.818;2023-04-21T07:17:02;0.52;;;0.52;;
23617;SDS011;18207;32.078;34.818;2023-04-21T07:19:32;0.73;;;0.40;;
23617;SDS011;18207;32.078;34.818;2023-04-21T07:22:02;1.27;;;0.60;;
23617;SDS011;18207;32.078;34.818;2023-04-21T07:24:34;1.02;;;0.52;;
23617;SDS011;18207;32.078;34.818;2023-04-21T07:27:05;0.50;;;0.50;;
23617;SDS011;18207;32.078;34.818;2023-04-21T07:29:35;0.50;;;0.50;;
23617;SDS011;18207;32.078;34.818;2023-04-21T07:32:05;0.50;;;0.30;;
23617;SDS011;18207;32.078;34.818;2023-04-21T07:34:35;0.82;;;0.50;;
23617;SDS011;18207;32.078;34.818;2023-04-21T07:37:06;0.80;;;0.50;;
23617;SDS011;18207;32.078;34.818;2023-04-21T07:39:37;0.77;;;0.45;;
23617;SDS011;18207;32.078;34.818;2023-04-21T07:42:07;0.60;;;0.60;;
23617;SDS011;18207;32.078;34.818;2023-04-21T07:44:38;0.93;;;0.60;;
23617;SDS011;18207;32.078;34.818;2023-04-21T07:47:08;0.80;;;0.60;;
23617;SDS011;18207;32.078;34.818;2023-04-21T07:49:38;0.47;;;0.30;;
23617;SDS011;18207;32.078;34.818;2023-04-21T07:52:08;1.02;;;0.70;;
23617;SDS011;18207;32.078;34.818;2023-04-21T07:54:40;0.35;;;0.35;;
23617;SDS011;18207;32.078;34.818;2023-04-21T07:57:10;2.92;;;0.60;;
23617;SDS011;18207;32.078;34.818;2023-04-21T07:59:41;0.70;;;0.40;;
23617;SDS011;18207;32.078;34.818;2023-04-21T08:02:11;0.60;;;0.50;;
23617;SDS011;18207;32.078;34.818;2023-04-21T08:04:42;0.30;;;0.30;;
23617;SDS011;18207;32.078;34.818;2023-04-21T08:07:12;0.73;;;0.60;;
23617;SDS011;18207;32.078;34.818;2023-04-21T08:09:44;1.05;;;0.50;;
23617;SDS011;18207;32.078;34.818;2023-04-21T08:12:14;0.77;;;0.50;;
23617;SDS011;18207;32.078;34.818;2023-04-21T08:14:45;0.73;;;0.50;;
23617;SDS011;18207;32.078;34.818;2023-04-21T08:17:16;0.60;;;0.40;;
23617;SDS011;18207;32.078;34.818;2023-04-21T08:19:46;0.43;;;0.38;;
23617;SDS011;18207;32.078;34.818;2023-04-21T08:22:17;0.65;;;0.40;;
23617;SDS011;18207;32.078;34.818;2023-04-21T08:24:50;0.45;;;0.35;;
23617;SDS011;18207;32.078;34.818;2023-04-21T08:27:21;0.32;;;0.32;;
23617;SDS011;18207;32.078;34.818;2023-04-21T08:29:51;0.80;;;0.40;;
23617;SDS011;18207;32.078;34.818;2023-04-21T08:32:21;0.77;;;0.52;;
23617;SDS011;18207;32.078;34.818;2023-04-21T08:34:52;1.05;;;0.55;;
23617;SDS011;18207;32.078;34.818;2023-04-21T08:37:23;0.68;;;0.50;;
23617;SDS011;18207;32.078;34.818;2023-04-21T08:39:55;0.45;;;0.45;;
23617;SDS011;18207;32.078;34.818;2023-04-21T08:42:25;0.65;;;0.40;;
23617;SDS011;18207;32.078;34.818;2023-04-21T08:44:55;0.45;;;0.40;;
23617;SDS011;18207;32.078;34.818;2023-04-21T08:47:26;0.40;;;0.40;;
23617;SDS011;18207;32.078;34.818;2023-04-21T08:49:57;0.50;;;0.30;;
23617;SDS011;18207;32.078;34.818;2023-04-21T08:52:27;0.50;;;0.40;;
23617;SDS011;18207;32.078;34.818;2023-04-21T08:54:59;0.95;;;0.47;;
23617;SDS011;18207;32.078;34.818;2023-04-21T08:57:30;1.50;;;0.40;;
23617;SDS011;18207;32.078;34.818;2023-04-21T09:00:00;0.45;;;0.45;;
23617;SDS011;18207;32.078;34.818;2023-04-21T09:02:33;0.40;;;0.20;;
23617;SDS011;18207;32.078;34.818;2023-04-21T09:05:27;0.40;;;0.20;;
23617;SDS011;18207;32.078;34.818;2023-04-21T09:08:06;0.80;;;0.60;;
23617;SDS011;18207;32.078;34.818;2023-04-21T09:10:43;0.40;;;0.30;;
23617;SDS011;18207;32.078;34.818;2023-04-21T09:13:18;0.50;;;0.40;;
23617;SDS011;18207;32.078;34.818;2023-04-21T09:15:50;0.70;;;0.38;;
23617;SDS011;18207;32.078;34.818;2023-04-21T09:18:20;1.10;;;0.38;;
23617;SDS011;18207;32.078;34.818;2023-04-21T09:21:03;0.52;;;0.35;;
23617;SDS011;18207;32.078;34.818;2023-04-21T09:23:43;0.75;;;0.50;;
23617;SDS011;18207;32.078;34.818;2023-04-21T09:26:18;1.35;;;0.60;;
23617;SDS011;18207;32.078;34.818;2023-04-21T09:28:50;0.75;;;0.40;;
23617;SDS011;18207;32.078;34.818;2023-04-21T09:31:22;0.60;;;0.40;;
23617;SDS011;18207;32.078;34.818;2023-04-21T09:33:55;0.40;;;0.30;;
23617;SDS011;18207;32.078;34.818;2023-04-21T09:36:27;0.90;;;0.35;;
23617;SDS011;18207;32.078;34.818;2023-04-21T09:39:00;0.40;;;0.40;;
23617;SDS011;18207;32.078;34.818;2023-04-21T09:41:37;0.93;;;0.40;;
23617;SDS011;18207;32.078;34.818;2023-04-21T09:44:07;0.20;;;0.15;;
23617;SDS011;18207;32.078;34.818;2023-04-21T09:46:37;0.30;;;0.30;;
23617;SDS011;18207;32.078;34.818;2023-04-21T09:49:11;0.45;;;0.40;;
23617;SDS011;18207;32.078;34.818;2023-04-21T09:51:44;0.30;;;0.30;;
23617;SDS011;18207;32.078;34.818;2023-04-21T09:54:35;0.40;;;0.20;;
23617;SDS011;18207;32.078;34.818;2023-04-21T09:57:20;1.00;;;0.20;;
23617;SDS011;18207;32.078;34.818;2023-04-21T09:59:55;0.65;;;0.50;;
23617;SDS011;18207;32.078;34.818;2023-04-21T10:02:31;0.25;;;0.25;;
23617;SDS011;18207;32.078;34.818;2023-04-21T10:05:09;0.30;;;0.30;;
23617;SDS011;18207;32.078;34.818;2023-04-21T10:07:40;0.40;;;0.38;;
23617;SDS011;18207;32.078;34.818;2023-04-21T10:10:13;0.50;;;0.20;;
23617;SDS011;18207;32.078;34.818;2023-04-21T10:12:53;0.55;;;0.30;;
23617;SDS011;18207;32.078;34.818;2023-04-21T10:15:27;0.93;;;0.50;;
23617;SDS011;18207;32.078;34.818;2023-04-21T10:18:12;1.10;;;0.50;;
23617;SDS011;18207;32.078;34.818;2023-04-21T10:20:52;0.30;;;0.30;;
23617;SDS011;18207;32.078;34.818;2023-04-21T10:23:30;0.70;;;0.30;;
23617;SDS011;18207;32.078;34.818;2023-04-21T10:26:07;0.65;;;0.40;;
23617;SDS011;18207;32.078;34.818;2023-04-21T10:28:43;0.30;;;0.30;;
23617;SDS011;18207;32.078;34.818;2023-04-21T10:31:17;0.65;;;0.20;;
23617;SDS011;18207;32.078;34.818;2023-04-21T10:36:48;0.82;;;0.25;;
23617;SDS011;18207;32.078;34.818;2023-04-21T10:39:42;0.60;;;0.30;;
23617;SDS011;18207;32.078;34.818;2023-04-21T10:42:24;0.63;;;0.35;;
23617;SDS011;18207;32.078;34.818;2023-04-21T10:45:04;0.40;;;0.40;;
23617;SDS011;18207;32.078;34.818;2023-04-21T10:47:43;0.93;;;0.55;;
23617;SDS011;18207;32.078;34.818;2023-04-21T10:50:18;0.50;;;0.43;;
23617;SDS011;18207;32.078;34.818;2023-04-21T10:52:57;0.60;;;0.40;;
23617;SDS011;18207;32.078;34.818;2023-04-21T10:55:37;0.25;;;0.25;;
23617;SDS011;18207;32.078;34.818;2023-04-21T10:58:09;0.22;;;0.22;;
23617;SDS011;18207;32.078;34.818;2023-04-21T11:00:40;0.40;;;0.30;;
23617;SDS011;18207;32.078;34.818;2023-04-21T11:03:11;0.50;;;0.38;;
23617;SDS011;18207;32.078;34.818;2023-04-21T11:05:42;0.50;;;0.32;;
23617;SDS011;18207;32.078;34.818;2023-04-21T11:08:12;0.40;;;0.30;;
23617;SDS011;18207;32.078;34.818;2023-04-21T11:10:44;0.77;;;0.50;;
23617;SDS011;18207;32.078;34.818;2023-04-21T11:13:21;0.30;;;0.30;;
23617;SDS011;18207;32.078;34.818;2023-04-21T11:16:04;1.70;;;0.40;;
23617;SDS011;18207;32.078;34.818;2023-04-21T11:18:36;0.55;;;0.28;;
23617;SDS011;18207;32.078;34.818;2023-04-21T11:21:09;0.32;;;0.20;;
23617;SDS011;18207;32.078;34.818;2023-04-21T11:23:49;0.30;;;0.20;;
23617;SDS011;18207;32.078;34.818;2023-04-21T11:26:31;1.08;;;0.20;;
23617;SDS011;18207;32.078;34.818;2023-04-21T11:29:04;0.10;;;0.10;;
23617;SDS011;18207;32.078;34.818;2023-04-21T11:31:40;0.40;;;0.40;;
23617;SDS011;18207;32.078;34.818;2023-04-21T11:34:11;0.17;;;0.17;;
23617;SDS011;18207;32.078;34.818;2023-04-21T11:36:45;0.60;;;0.32;;
23617;SDS011;18207;32.078;34.818;2023-04-21T11:39:16;0.57;;;0.45;;
23617;SDS011;18207;32.078;34.818;2023-04-21T11:41:50;0.68;;;0.30;;
23617;SDS011;18207;32.078;34.818;2023-04-21T11:44:30;0.60;;;0.43;;
23617;SDS011;18207;32.078;34.818;2023-04-21T11:47:12;0.30;;;0.30;;
23617;SDS011;18207;32.078;34.818;2023-04-21T11:49:45;0.63;;;0.30;;
23617;SDS011;18207;32.078;34.818;2023-04-21T11:52:21;0.75;;;0.45;;
23617;SDS011;18207;32.078;34.818;2023-04-21T11:54:55;0.57;;;0.32;;
23617;SDS011;18207;32.078;34.818;2023-04-21T11:57:27;0.50;;;0.40;;
23617;SDS011;18207;32.078;34.818;2023-04-21T12:00:00;0.20;;;0.20;;
23617;SDS011;18207;32.078;34.818;2023-04-21T12:02:36;0.30;;;0.30;;
23617;SDS011;18207;32.078;34.818;2023-04-21T12:05:07;0.52;;;0.40;;
23617;SDS011;18207;32.078;34.818;2023-04-21T12:07:40;1.13;;;0.55;;
23617;SDS011;18207;32.078;34.818;2023-04-21T12:10:15;0.68;;;0.40;;
23617;SDS011;18207;32.078;34.818;2023-04-21T12:12:48;0.30;;;0.30;;
23617;SDS011;18207;32.078;34.818;2023-04-21T12:15:19;0.35;;;0.35;;
23617;SDS011;18207;32.078;34.818;2023-04-21T12:17:52;0.77;;;0.40;;
23617;SDS011;18207;32.078;34.818;2023-04-21T12:20:23;0.63;;;0.47;;
23617;SDS011;18207;32.078;34.818;2023-04-21T12:22:57;1.77;;;0.50;;
23617;SDS011;18207;32.078;34.818;2023-04-21T12:25:27;0.20;;;0.20;;
23617;SDS011;18207;32.078;34.818;2023-04-21T12:27:57;0.80;;;0.80;;
23617;SDS011;18207;32.078;34.818;2023-04-21T12:30:28;0.90;;;0.90;;
23617;SDS011;18207;32.078;34.818;2023-04-21T12:33:03;2.35;;;2.25;;
23617;SDS011;18207;32.078;34.818;2023-04-21T12:35:33;2.47;;;2.28;;
23617;SDS011;18207;32.078;34.818;2023-04-21T12:38:03;2.38;;;2.20;;
23617;SDS011;18207;32.078;34.818;2023-04-21T12:40:34;3.67;;;3.38;;
23617;SDS011;18207;32.078;34.818;2023-04-21T12:43:04;3.88;;;3.58;;
23617;SDS011;18207;32.078;34.818;2023-04-21T12:45:34;3.88;;;3.58;;
23617;SDS011;18207;32.078;34.818;2023-04-21T12:48:06;2.90;;;2.70;;
23617;SDS011;18207;32.078;34.818;2023-04-21T12:50:37;2.88;;;2.67;;
23617;SDS011;18207;32.078;34.818;2023-04-21T12:53:07;2.25;;;2.15;;
23617;SDS011;18207;32.078;34.818;2023-04-21T12:55:37;1.75;;;1.65;;
23617;SDS011;18207;32.078;34.818;2023-04-21T12:58:22;1.52;;;1.42;;
23617;SDS011;18207;32.078;34.818;2023-04-21T13:00:56;1.38;;;1.27;;
23617;SDS011;18207;32.078;34.818;2023-04-21T13:03:29;1.25;;;1.10;;
23617;SDS011;18207;32.078;34.818;2023-04-21T13:05:59;1.27;;;1.17;;
23617;SDS011;18207;32.078;34.818;2023-04-21T13:08:29;0.80;;;0.80;;
23617;SDS011;18207;32.078;34.818;2023-04-21T13:11:00;0.73;;;0.73;;
23617;SDS011;18207;32.078;34.818;2023-04-21T13:13:30;1.20;;;1.10;;
23617;SDS011;18207;32.078;34.818;2023-04-21T13:15:59;0.50;;;0.50;;
23617;SDS011;18207;32.078;34.818;2023-04-21T13:18:32;0.77;;;0.75;;
23617;SDS011;18207;32.078;34.818;2023-04-21T13:21:03;0.70;;;0.68;;
23617;SDS011;18207;32.078;34.818;2023-04-21T13:23:33;0.57;;;0.30;;
23617;SDS011;18207;32.078;34.818;2023-04-21T13:26:03;0.65;;;0.50;;
23617;SDS011;18207;32.078;34.818;2023-04-21T13:28:34;0.82;;;0.60;;
23617;SDS011;18207;32.078;34.818;2023-04-21T13:31:05;0.35;;;0.35;;
23617;SDS011;18207;32.078;34.818;2023-04-21T13:33:37;0.73;;;0.40;;
23617;SDS011;18207;32.078;34.818;2023-04-21T13:36:07;0.65;;;0.38;;
23617;SDS011;18207;32.078;34.818;2023-04-21T13:38:39;0.60;;;0.60;;
23617;SDS011;18207;32.078;34.818;2023-04-21T13:41:10;0.50;;;0.30;;
23617;SDS011;18207;32.078;34.818;2023-04-21T13:43:50;0.45;;;0.40;;
23617;SDS011;18207;32.078;34.818;2023-04-21T13:46:20;0.43;;;0.28;;
23617;SDS011;18207;32.078;34.818;2023-04-21T13:48:53;0.77;;;0.28;;
23617;SDS011;18207;32.078;34.818;2023-04-21T13:51:23;0.30;;;0.30;;
23617;SDS011;18207;32.078;34.818;2023-04-21T13:53:53;0.43;;;0.32;;
23617;SDS011;18207;32.078;34.818;2023-04-21T13:56:23;0.55;;;0.43;;
23617;SDS011;18207;32.078;34.818;2023-04-21T13:58:53;0.30;;;0.30;;
23617;SDS011;18207;32.078;34.818;2023-04-21T14:01:25;0.50;;;0.20;;
23617;SDS011;18207;32.078;34.818;2023-04-21T14:03:56;0.68;;;0.40;;
23617;SDS011;18207;32.078;34.818;2023-04-21T14:06:26;1.23;;;0.40;;
23617;SDS011;18207;32.078;34.818;2023-04-21T14:08:57;0.57;;;0.40;;
23617;SDS011;18207;32.078;34.818;2023-04-21T14:11:27;0.28;;;0.28;;
23617;SDS011;18207;32.078;34.818;2023-04-21T14:13:57;0.57;;;0.40;;
23617;SDS011;18207;32.078;34.818;2023-04-21T14:16:35;0.52;;;0.40;;
23617;SDS011;18207;32.078;34.818;2023-04-21T14:19:07;0.82;;;0.40;;
23617;SDS011;18207;32.078;34.818;2023-04-21T14:21:37;1.23;;;0.38;;
23617;SDS011;18207;32.078;34.818;2023-04-21T14:24:07;0.73;;;0.40;;
23617;SDS011;18207;32.078;34.818;2023-04-21T14:26:37;0.43;;;0.30;;
23617;SDS011;18207;32.078;34.818;2023-04-21T14:29:08;0.43;;;0.43;;
23617;SDS011;18207;32.078;34.818;2023-04-21T14:31:38;0.35;;;0.35;;
23617;SDS011;18207;32.078;34.818;2023-04-21T14:34:14;0.40;;;0.40;;
23617;SDS011;18207;32.078;34.818;2023-04-21T14:36:44;0.43;;;0.43;;
23617;SDS011;18207;32.078;34.818;2023-04-21T14:39:15;0.47;;;0.43;;
23617;SDS011;18207;32.078;34.818;2023-04-21T14:41:46;0.45;;;0.45;;
23617;SDS011;18207;32.078;34.818;2023-04-21T14:44:15;0.38;;;0.30;;
23617;SDS011;18207;32.078;34.818;2023-04-21T14:46:46;0.28;;;0.20;;
23617;SDS011;18207;32.078;34.818;2023-04-21T14:49:33;0.38;;;0.20;;
23617;SDS011;18207;32.078;34.818;2023-04-21T14:52:03;0.32;;;0.30;;
23617;SDS011;18207;32.078;34.818;2023-04-21T14:54:35;0.45;;;0.40;;
23617;SDS011;18207;32.078;34.818;2023-04-21T14:57:05;0.60;;;0.35;;
23617;SDS011;18207;32.078;34.818;2023-04-21T14:59:45;0.60;;;0.32;;
23617;SDS011;18207;32.078;34.818;2023-04-21T15:02:17;0.60;;;0.40;;
23617;SDS011;18207;32.078;34.818;2023-04-21T15:04:50;0.65;;;0.50;;